sensor_id;sensor_type;location;lat;lon;timestamp;temperature;humidity
20045;DHT22;10183;47.808;9.476;2022-09-03T00:01:00;13.40;99.90
20045;DHT22;10183;47.808;9.476;2022-09-03T00:03:36;13.10;99.90
20045;DHT22;10183;47.808;9.476;2022-09-03T00:14:33;13.00;99.90
20045;DHT22;10183;47.808;9.476;2022-09-03T00:17:10;13.00;99.90
20045;DHT22;10183;47.808;9.476;2022-09-03T00:19:57;12.90;99.90
20045;DHT22;10183;47.808;9.476;2022-09-03T00:25:46;13.10;99.90
20045;DHT22;10183;47.808;9.476;2022-09-03T00:28:18;13.00;99.90
20045;DHT22;10183;47.808;9.476;2022-09-03T00:30:49;13.00;99.90
20045;DHT22;10183;47.808;9.476;2022-09-03T00:33:22;12.70;99.90
20045;DHT22;10183;47.808;9.476;2022-09-03T00:35:56;12.60;99.90
20045;DHT22;10183;47.808;9.476;2022-09-03T00:38:22;12.50;99.90
20045;DHT22;10183;47.808;9.476;2022-09-03T00:43:41;12.40;99.90
20045;DHT22;10183;47.808;9.476;2022-09-03T00:46:16;12.50;99.90
20045;DHT22;10183;47.808;9.476;2022-09-03T00:51:20;12.40;99.90
20045;DHT22;10183;47.808;9.476;2022-09-03T00:54:05;12.40;99.90
20045;DHT22;10183;47.808;9.476;2022-09-03T01:02:06;12.60;99.90
20045;DHT22;10183;47.808;9.476;2022-09-03T01:04:54;12.40;99.90
20045;DHT22;10183;47.808;9.476;2022-09-03T01:13:05;12.30;99.90
20045;DHT22;10183;47.808;9.476;2022-09-03T01:30:19;12.30;99.90
20045;DHT22;10183;47.808;9.476;2022-09-03T01:33:04;12.30;99.90
20045;DHT22;10183;47.808;9.476;2022-09-03T01:46:29;12.50;99.90
20045;DHT22;10183;47.808;9.476;2022-09-03T01:51:28;12.60;99.90
20045;DHT22;10183;47.808;9.476;2022-09-03T01:54:31;12.50;99.90
20045;DHT22;10183;47.808;9.476;2022-09-03T02:02:22;12.60;99.90
20045;DHT22;10183;47.808;9.476;2022-09-03T02:05:02;12.70;99.90
20045;DHT22;10183;47.808;9.476;2022-09-03T02:07:38;12.80;99.90
20045;DHT22;10183;47.808;9.476;2022-09-03T02:10:10;13.00;99.90
20045;DHT22;10183;47.808;9.476;2022-09-03T02:12:37;13.50;99.90
20045;DHT22;10183;47.808;9.476;2022-09-03T02:15:11;13.70;99.90
20045;DHT22;10183;47.808;9.476;2022-09-03T02:17:40;13.90;99.90
20045;DHT22;10183;47.808;9.476;2022-09-03T02:20:09;14.00;99.90
20045;DHT22;10183;47.808;9.476;2022-09-03T02:22:38;14.20;99.90
20045;DHT22;10183;47.808;9.476;2022-09-03T02:25:06;14.30;99.90
20045;DHT22;10183;47.808;9.476;2022-09-03T02:27:32;14.40;99.90
20045;DHT22;10183;47.808;9.476;2022-09-03T02:29:59;14.50;99.90
20045;DHT22;10183;47.808;9.476;2022-09-03T02:32:25;14.50;99.90
20045;DHT22;10183;47.808;9.476;2022-09-03T02:34:52;14.60;99.90
20045;DHT22;10183;47.808;9.476;2022-09-03T02:37:18;14.60;99.90
20045;DHT22;10183;47.808;9.476;2022-09-03T02:39:45;14.70;99.90
20045;DHT22;10183;47.808;9.476;2022-09-03T02:42:12;14.70;99.90
20045;DHT22;10183;47.808;9.476;2022-09-03T02:47:51;14.70;99.90
20045;DHT22;10183;47.808;9.476;2022-09-03T02:50:19;14.70;99.90
20045;DHT22;10183;47.808;9.476;2022-09-03T02:52:45;14.60;99.90
20045;DHT22;10183;47.808;9.476;2022-09-03T02:55:11;14.60;99.90
20045;DHT22;10183;47.808;9.476;2022-09-03T02:57:37;14.60;99.90
20045;DHT22;10183;47.808;9.476;2022-09-03T03:00:04;14.60;99.90
20045;DHT22;10183;47.808;9.476;2022-09-03T03:02:30;14.60;99.90
20045;DHT22;10183;47.808;9.476;2022-09-03T03:04:56;14.70;99.90
20045;DHT22;10183;47.808;9.476;2022-09-03T03:07:22;14.70;99.90
20045;DHT22;10183;47.808;9.476;2022-09-03T03:09:49;14.70;99.90
20045;DHT22;10183;47.808;9.476;2022-09-03T03:12:15;14.80;99.90
20045;DHT22;10183;47.808;9.476;2022-09-03T03:14:42;14.80;99.90
20045;DHT22;10183;47.808;9.476;2022-09-03T03:17:08;14.80;99.90
20045;DHT22;10183;47.808;9.476;2022-09-03T03:19:35;14.90;99.90
20045;DHT22;10183;47.808;9.476;2022-09-03T03:22:01;14.90;99.90
20045;DHT22;10183;47.808;9.476;2022-09-03T03:24:27;14.90;99.90
20045;DHT22;10183;47.808;9.476;2022-09-03T03:26:56;14.90;99.90
20045;DHT22;10183;47.808;9.476;2022-09-03T03:29:23;14.90;99.90
20045;DHT22;10183;47.808;9.476;2022-09-03T03:31:50;14.90;99.90
20045;DHT22;10183;47.808;9.476;2022-09-03T03:34:16;14.90;99.90
20045;DHT22;10183;47.808;9.476;2022-09-03T03:36:43;15.00;99.90
20045;DHT22;10183;47.808;9.476;2022-09-03T03:39:09;14.90;99.90
20045;DHT22;10183;47.808;9.476;2022-09-03T03:41:35;14.90;99.90
20045;DHT22;10183;47.808;9.476;2022-09-03T03:44:05;14.90;99.90
20045;DHT22;10183;47.808;9.476;2022-09-03T03:46:33;14.90;99.90
20045;DHT22;10183;47.808;9.476;2022-09-03T03:49:00;15.00;99.90
20045;DHT22;10183;47.808;9.476;2022-09-03T03:51:26;15.10;99.90
20045;DHT22;10183;47.808;9.476;2022-09-03T03:53:57;15.00;99.90
20045;DHT22;10183;47.808;9.476;2022-09-03T03:56:24;14.90;99.90
20045;DHT22;10183;47.808;9.476;2022-09-03T03:58:52;14.90;99.90
20045;DHT22;10183;47.808;9.476;2022-09-03T04:01:20;14.90;99.90
20045;DHT22;10183;47.808;9.476;2022-09-03T04:03:47;14.90;99.90
20045;DHT22;10183;47.808;9.476;2022-09-03T04:06:15;14.80;99.90
20045;DHT22;10183;47.808;9.476;2022-09-03T04:08:44;14.70;99.90
20045;DHT22;10183;47.808;9.476;2022-09-03T04:11:13;14.70;99.90
20045;DHT22;10183;47.808;9.476;2022-09-03T04:13:41;14.70;99.90
20045;DHT22;10183;47.808;9.476;2022-09-03T04:16:13;14.70;99.90
20045;DHT22;10183;47.808;9.476;2022-09-03T04:18:40;14.60;99.90
20045;DHT22;10183;47.808;9.476;2022-09-03T04:21:12;14.40;99.90
20045;DHT22;10183;47.808;9.476;2022-09-03T04:23:40;14.50;99.90
20045;DHT22;10183;47.808;9.476;2022-09-03T04:26:08;14.50;99.90
20045;DHT22;10183;47.808;9.476;2022-09-03T04:28:35;14.60;99.90
20045;DHT22;10183;47.808;9.476;2022-09-03T04:31:03;14.50;99.90
20045;DHT22;10183;47.808;9.476;2022-09-03T04:33:31;14.50;99.90
20045;DHT22;10183;47.808;9.476;2022-09-03T04:36:07;14.50;99.90
20045;DHT22;10183;47.808;9.476;2022-09-03T04:38:35;14.50;99.90
20045;DHT22;10183;47.808;9.476;2022-09-03T04:41:03;14.60;99.90
20045;DHT22;10183;47.808;9.476;2022-09-03T04:43:29;14.60;99.90
20045;DHT22;10183;47.808;9.476;2022-09-03T04:46:00;14.60;99.90
20045;DHT22;10183;47.808;9.476;2022-09-03T04:48:27;14.60;99.90
20045;DHT22;10183;47.808;9.476;2022-09-03T04:51:00;14.50;99.90
20045;DHT22;10183;47.808;9.476;2022-09-03T04:53:32;14.50;99.90
20045;DHT22;10183;47.808;9.476;2022-09-03T04:55:59;14.60;99.90
20045;DHT22;10183;47.808;9.476;2022-09-03T04:58:25;14.70;99.90
20045;DHT22;10183;47.808;9.476;2022-09-03T05:00:52;14.70;99.90
20045;DHT22;10183;47.808;9.476;2022-09-03T05:03:18;14.70;99.90
20045;DHT22;10183;47.808;9.476;2022-09-03T05:05:53;14.60;99.90
20045;DHT22;10183;47.808;9.476;2022-09-03T05:08:20;14.50;99.90
20045;DHT22;10183;47.808;9.476;2022-09-03T05:10:47;14.40;99.90
20045;DHT22;10183;47.808;9.476;2022-09-03T05:13:13;14.40;99.90
20045;DHT22;10183;47.808;9.476;2022-09-03T05:15:39;14.40;99.90
20045;DHT22;10183;47.808;9.476;2022-09-03T05:18:08;14.60;99.90
20045;DHT22;10183;47.808;9.476;2022-09-03T05:20:34;14.50;99.90
20045;DHT22;10183;47.808;9.476;2022-09-03T05:23:01;14.60;99.90
20045;DHT22;10183;47.808;9.476;2022-09-03T05:25:29;14.60;99.90
20045;DHT22;10183;47.808;9.476;2022-09-03T05:27:57;14.60;99.90
20045;DHT22;10183;47.808;9.476;2022-09-03T05:30:23;14.60;99.90
20045;DHT22;10183;47.808;9.476;2022-09-03T05:32:51;14.60;99.90
20045;DHT22;10183;47.808;9.476;2022-09-03T05:35:17;14.60;99.90
20045;DHT22;10183;47.808;9.476;2022-09-03T05:37:44;14.60;99.90
20045;DHT22;10183;47.808;9.476;2022-09-03T05:40:10;14.60;99.90
20045;DHT22;10183;47.808;9.476;2022-09-03T05:42:37;14.80;99.90
20045;DHT22;10183;47.808;9.476;2022-09-03T05:45:08;14.80;99.90
20045;DHT22;10183;47.808;9.476;2022-09-03T05:47:37;14.80;99.90
20045;DHT22;10183;47.808;9.476;2022-09-03T05:50:06;14.90;99.90
20045;DHT22;10183;47.808;9.476;2022-09-03T05:52:34;14.90;99.90
20045;DHT22;10183;47.808;9.476;2022-09-03T05:55:01;15.10;99.90
20045;DHT22;10183;47.808;9.476;2022-09-03T05:57:28;15.10;99.90
20045;DHT22;10183;47.808;9.476;2022-09-03T05:59:55;15.30;99.90
20045;DHT22;10183;47.808;9.476;2022-09-03T06:02:22;15.20;99.90
20045;DHT22;10183;47.808;9.476;2022-09-03T06:04:48;15.20;99.90
20045;DHT22;10183;47.808;9.476;2022-09-03T06:07:15;15.30;99.90
20045;DHT22;10183;47.808;9.476;2022-09-03T06:09:42;15.30;99.90
20045;DHT22;10183;47.808;9.476;2022-09-03T06:12:08;15.40;99.90
20045;DHT22;10183;47.808;9.476;2022-09-03T06:14:34;15.30;99.90
20045;DHT22;10183;47.808;9.476;2022-09-03T06:17:00;15.30;99.90
20045;DHT22;10183;47.808;9.476;2022-09-03T06:19:27;15.40;99.90
20045;DHT22;10183;47.808;9.476;2022-09-03T06:21:53;15.50;99.90
20045;DHT22;10183;47.808;9.476;2022-09-03T06:24:21;15.50;99.90
20045;DHT22;10183;47.808;9.476;2022-09-03T06:26:52;15.70;99.90
20045;DHT22;10183;47.808;9.476;2022-09-03T06:29:18;15.90;99.90
20045;DHT22;10183;47.808;9.476;2022-09-03T06:31:45;15.80;99.90
20045;DHT22;10183;47.808;9.476;2022-09-03T06:34:13;15.70;99.90
20045;DHT22;10183;47.808;9.476;2022-09-03T06:36:39;15.80;99.90
20045;DHT22;10183;47.808;9.476;2022-09-03T06:39:08;16.00;99.90
20045;DHT22;10183;47.808;9.476;2022-09-03T06:41:34;16.20;99.90
20045;DHT22;10183;47.808;9.476;2022-09-03T06:44:06;16.20;99.90
20045;DHT22;10183;47.808;9.476;2022-09-03T06:46:37;16.30;99.90
20045;DHT22;10183;47.808;9.476;2022-09-03T06:49:05;16.40;99.90
20045;DHT22;10183;47.808;9.476;2022-09-03T06:51:31;16.60;99.90
20045;DHT22;10183;47.808;9.476;2022-09-03T06:54:01;16.40;99.90
20045;DHT22;10183;47.808;9.476;2022-09-03T06:56:27;16.40;99.90
20045;DHT22;10183;47.808;9.476;2022-09-03T06:58:56;16.50;99.90
20045;DHT22;10183;47.808;9.476;2022-09-03T07:01:27;16.20;99.90
20045;DHT22;10183;47.808;9.476;2022-09-03T07:04:01;16.20;99.90
20045;DHT22;10183;47.808;9.476;2022-09-03T07:06:45;16.00;99.90
20045;DHT22;10183;47.808;9.476;2022-09-03T07:09:12;16.20;99.90
20045;DHT22;10183;47.808;9.476;2022-09-03T07:11:40;15.90;99.90
20045;DHT22;10183;47.808;9.476;2022-09-03T07:14:13;15.70;99.90
20045;DHT22;10183;47.808;9.476;2022-09-03T07:16:39;15.80;99.90
20045;DHT22;10183;47.808;9.476;2022-09-03T07:19:07;15.70;99.90
20045;DHT22;10183;47.808;9.476;2022-09-03T07:21:35;15.70;99.90
20045;DHT22;10183;47.808;9.476;2022-09-03T07:24:02;15.70;99.90
20045;DHT22;10183;47.808;9.476;2022-09-03T07:26:32;15.60;99.90
20045;DHT22;10183;47.808;9.476;2022-09-03T07:28:58;15.80;99.90
20045;DHT22;10183;47.808;9.476;2022-09-03T07:31:30;15.90;99.90
20045;DHT22;10183;47.808;9.476;2022-09-03T07:34:05;16.10;99.90
20045;DHT22;10183;47.808;9.476;2022-09-03T07:36:37;16.20;99.90
20045;DHT22;10183;47.808;9.476;2022-09-03T07:39:04;16.10;99.90
20045;DHT22;10183;47.808;9.476;2022-09-03T07:41:30;16.10;99.90
20045;DHT22;10183;47.808;9.476;2022-09-03T07:44:00;16.10;99.90
20045;DHT22;10183;47.808;9.476;2022-09-03T07:46:32;16.00;99.90
20045;DHT22;10183;47.808;9.476;2022-09-03T07:48:59;16.10;99.90
20045;DHT22;10183;47.808;9.476;2022-09-03T07:51:31;16.30;99.90
20045;DHT22;10183;47.808;9.476;2022-09-03T07:53:59;16.30;99.90
20045;DHT22;10183;47.808;9.476;2022-09-03T07:56:27;16.50;99.90
20045;DHT22;10183;47.808;9.476;2022-09-03T07:58:57;16.70;99.90
20045;DHT22;10183;47.808;9.476;2022-09-03T08:01:24;16.80;99.90
20045;DHT22;10183;47.808;9.476;2022-09-03T08:03:52;16.60;99.90
20045;DHT22;10183;47.808;9.476;2022-09-03T08:06:20;16.40;99.90
20045;DHT22;10183;47.808;9.476;2022-09-03T08:08:46;16.60;99.90
20045;DHT22;10183;47.808;9.476;2022-09-03T08:11:14;16.80;99.90
20045;DHT22;10183;47.808;9.476;2022-09-03T08:13:42;17.20;99.90
20045;DHT22;10183;47.808;9.476;2022-09-03T08:16:11;17.20;99.90
20045;DHT22;10183;47.808;9.476;2022-09-03T08:18:38;17.40;99.90
20045;DHT22;10183;47.808;9.476;2022-09-03T08:21:09;17.40;99.90
20045;DHT22;10183;47.808;9.476;2022-09-03T08:23:38;17.50;99.90
20045;DHT22;10183;47.808;9.476;2022-09-03T08:26:05;17.80;99.90
20045;DHT22;10183;47.808;9.476;2022-09-03T08:28:33;17.90;99.90
20045;DHT22;10183;47.808;9.476;2022-09-03T08:31:12;18.10;99.90
20045;DHT22;10183;47.808;9.476;2022-09-03T08:33:45;18.30;99.90
20045;DHT22;10183;47.808;9.476;2022-09-03T08:36:16;18.40;99.90
20045;DHT22;10183;47.808;9.476;2022-09-03T08:38:45;18.40;99.90
20045;DHT22;10183;47.808;9.476;2022-09-03T08:44:18;18.60;99.90
20045;DHT22;10183;47.808;9.476;2022-09-03T08:47:12;18.50;99.90
20045;DHT22;10183;47.808;9.476;2022-09-03T08:52:45;18.10;99.90
20045;DHT22;10183;47.808;9.476;2022-09-03T08:58:06;18.20;99.90
20045;DHT22;10183;47.808;9.476;2022-09-03T09:23:04;19.80;99.90
20045;DHT22;10183;47.808;9.476;2022-09-03T09:25:32;19.50;99.90
20045;DHT22;10183;47.808;9.476;2022-09-03T09:28:03;19.50;99.90
20045;DHT22;10183;47.808;9.476;2022-09-03T09:30:36;19.50;99.90
20045;DHT22;10183;47.808;9.476;2022-09-03T09:33:02;19.90;99.90
20045;DHT22;10183;47.808;9.476;2022-09-03T09:35:28;20.10;99.90
20045;DHT22;10183;47.808;9.476;2022-09-03T09:37:57;20.10;99.90
20045;DHT22;10183;47.808;9.476;2022-09-03T09:43:16;20.10;99.90
20045;DHT22;10183;47.808;9.476;2022-09-03T09:45:46;20.00;99.90
20045;DHT22;10183;47.808;9.476;2022-09-03T09:50:48;20.60;99.90
20045;DHT22;10183;47.808;9.476;2022-09-03T09:53:17;20.60;99.90
20045;DHT22;10183;47.808;9.476;2022-09-03T09:55:54;20.00;99.90
20045;DHT22;10183;47.808;9.476;2022-09-03T09:58:23;20.10;99.90
20045;DHT22;10183;47.808;9.476;2022-09-03T10:01:13;20.00;99.90
20045;DHT22;10183;47.808;9.476;2022-09-03T10:03:55;20.20;99.90
20045;DHT22;10183;47.808;9.476;2022-09-03T10:06:23;20.00;99.90
20045;DHT22;10183;47.808;9.476;2022-09-03T10:09:16;20.10;99.90
20045;DHT22;10183;47.808;9.476;2022-09-03T10:11:47;20.30;99.90
20045;DHT22;10183;47.808;9.476;2022-09-03T10:14:33;20.30;99.90
20045;DHT22;10183;47.808;9.476;2022-09-03T10:25:50;21.10;99.90
20045;DHT22;10183;47.808;9.476;2022-09-03T10:28:21;21.20;99.90
20045;DHT22;10183;47.808;9.476;2022-09-03T10:33:37;20.90;99.90
20045;DHT22;10183;47.808;9.476;2022-09-03T10:38:47;21.00;99.90
20045;DHT22;10183;47.808;9.476;2022-09-03T10:50:18;19.80;99.90
20045;DHT22;10183;47.808;9.476;2022-09-03T10:55:58;19.10;99.90
20045;DHT22;10183;47.808;9.476;2022-09-03T11:06:50;15.70;99.90
20045;DHT22;10183;47.808;9.476;2022-09-03T11:09:31;15.70;99.90
20045;DHT22;10183;47.808;9.476;2022-09-03T11:12:04;15.50;99.90
20045;DHT22;10183;47.808;9.476;2022-09-03T11:14:40;15.60;99.90
20045;DHT22;10183;47.808;9.476;2022-09-03T11:17:24;15.70;99.90
20045;DHT22;10183;47.808;9.476;2022-09-03T11:19:59;15.90;99.90
20045;DHT22;10183;47.808;9.476;2022-09-03T11:22:32;16.10;99.90
20045;DHT22;10183;47.808;9.476;2022-09-03T11:24:59;16.20;99.90
20045;DHT22;10183;47.808;9.476;2022-09-03T11:30:11;16.90;99.90
20045;DHT22;10183;47.808;9.476;2022-09-03T11:48:53;17.80;99.90
20045;DHT22;10183;47.808;9.476;2022-09-03T11:54:00;18.40;99.90
20045;DHT22;10183;47.808;9.476;2022-09-03T11:56:28;18.70;99.90
20045;DHT22;10183;47.808;9.476;2022-09-03T11:59:45;18.80;99.90
20045;DHT22;10183;47.808;9.476;2022-09-03T12:02:01;18.80;99.90
20045;DHT22;10183;47.808;9.476;2022-09-03T12:13:14;18.40;99.90
20045;DHT22;10183;47.808;9.476;2022-09-03T12:18:25;18.20;99.90
20045;DHT22;10183;47.808;9.476;2022-09-03T12:25:53;18.50;99.90
20045;DHT22;10183;47.808;9.476;2022-09-03T12:28:21;18.60;99.90
20045;DHT22;10183;47.808;9.476;2022-09-03T12:30:49;19.20;99.90
20045;DHT22;10183;47.808;9.476;2022-09-03T12:33:22;20.20;99.90
20045;DHT22;10183;47.808;9.476;2022-09-03T12:35:58;20.70;99.90
20045;DHT22;10183;47.808;9.476;2022-09-03T12:38:26;21.80;99.90
20045;DHT22;10183;47.808;9.476;2022-09-03T12:40:54;21.20;99.90
20045;DHT22;10183;47.808;9.476;2022-09-03T12:43:26;21.20;99.90
20045;DHT22;10183;47.808;9.476;2022-09-03T12:45:53;21.40;99.90
20045;DHT22;10183;47.808;9.476;2022-09-03T12:48:20;21.70;99.90
20045;DHT22;10183;47.808;9.476;2022-09-03T12:50:47;21.30;99.90
20045;DHT22;10183;47.808;9.476;2022-09-03T12:53:21;21.00;99.90
20045;DHT22;10183;47.808;9.476;2022-09-03T12:55:54;20.30;99.90
20045;DHT22;10183;47.808;9.476;2022-09-03T13:01:13;21.90;99.90
20045;DHT22;10183;47.808;9.476;2022-09-03T13:06:42;22.40;99.90
20045;DHT22;10183;47.808;9.476;2022-09-03T13:09:13;23.30;99.90
20045;DHT22;10183;47.808;9.476;2022-09-03T13:11:40;24.70;99.90
20045;DHT22;10183;47.808;9.476;2022-09-03T13:14:11;24.60;99.90
20045;DHT22;10183;47.808;9.476;2022-09-03T13:25:37;23.80;99.90
20045;DHT22;10183;47.808;9.476;2022-09-03T13:33:31;24.40;99.90
20045;DHT22;10183;47.808;9.476;2022-09-03T13:36:20;24.00;99.90
20045;DHT22;10183;47.808;9.476;2022-09-03T13:38:52;22.00;99.90
20045;DHT22;10183;47.808;9.476;2022-09-03T13:43:59;22.80;99.90
20045;DHT22;10183;47.808;9.476;2022-09-03T13:49:12;22.70;99.90
20045;DHT22;10183;47.808;9.476;2022-09-03T13:52:02;24.40;99.90
20045;DHT22;10183;47.808;9.476;2022-09-03T13:54:47;25.80;99.90
20045;DHT22;10183;47.808;9.476;2022-09-03T13:57:32;24.60;99.90
20045;DHT22;10183;47.808;9.476;2022-09-03T14:00:09;26.00;99.90
20045;DHT22;10183;47.808;9.476;2022-09-03T14:06:12;23.20;99.90
20045;DHT22;10183;47.808;9.476;2022-09-03T14:08:58;25.80;99.90
20045;DHT22;10183;47.808;9.476;2022-09-03T14:14:49;27.70;99.90
20045;DHT22;10183;47.808;9.476;2022-09-03T14:25:59;25.00;99.90
20045;DHT22;10183;47.808;9.476;2022-09-03T14:28:36;24.20;99.90
20045;DHT22;10183;47.808;9.476;2022-09-03T14:34:07;22.90;99.90
20045;DHT22;10183;47.808;9.476;2022-09-03T14:37:11;23.30;99.90
20045;DHT22;10183;47.808;9.476;2022-09-03T14:39:54;24.70;99.90
20045;DHT22;10183;47.808;9.476;2022-09-03T14:48:04;24.50;99.90
20045;DHT22;10183;47.808;9.476;2022-09-03T14:56:24;23.10;99.90
20045;DHT22;10183;47.808;9.476;2022-09-03T15:01:41;23.30;99.90
20045;DHT22;10183;47.808;9.476;2022-09-03T15:04:34;22.90;99.90
20045;DHT22;10183;47.808;9.476;2022-09-03T15:07:29;23.90;99.90
20045;DHT22;10183;47.808;9.476;2022-09-03T15:10:02;24.20;99.90
20045;DHT22;10183;47.808;9.476;2022-09-03T15:15:30;25.00;99.90
20045;DHT22;10183;47.808;9.476;2022-09-03T15:18:22;25.70;99.90
20045;DHT22;10183;47.808;9.476;2022-09-03T15:21:00;27.80;99.90
20045;DHT22;10183;47.808;9.476;2022-09-03T15:24:39;26.30;99.90
20045;DHT22;10183;47.808;9.476;2022-09-03T15:29:41;26.40;99.90
20045;DHT22;10183;47.808;9.476;2022-09-03T15:37:43;30.70;99.90
20045;DHT22;10183;47.808;9.476;2022-09-03T15:42:54;31.40;98.00
20045;DHT22;10183;47.808;9.476;2022-09-03T15:45:35;30.60;92.80
20045;DHT22;10183;47.808;9.476;2022-09-03T16:02:12;25.60;99.90
20045;DHT22;10183;47.808;9.476;2022-09-03T16:05:04;25.90;99.90
20045;DHT22;10183;47.808;9.476;2022-09-03T16:10:19;26.80;99.90
20045;DHT22;10183;47.808;9.476;2022-09-03T16:15:32;26.70;99.90
20045;DHT22;10183;47.808;9.476;2022-09-03T16:18:31;26.00;99.90
20045;DHT22;10183;47.808;9.476;2022-09-03T16:23:57;24.20;99.90
20045;DHT22;10183;47.808;9.476;2022-09-03T16:26:36;22.60;99.90
20045;DHT22;10183;47.808;9.476;2022-09-03T16:29:15;22.80;99.90
20045;DHT22;10183;47.808;9.476;2022-09-03T16:31:50;23.30;99.90
20045;DHT22;10183;47.808;9.476;2022-09-03T16:37:21;23.20;99.90
20045;DHT22;10183;47.808;9.476;2022-09-03T16:39:54;22.20;99.90
20045;DHT22;10183;47.808;9.476;2022-09-03T17:01:39;21.80;99.90
20045;DHT22;10183;47.808;9.476;2022-09-03T17:04:53;22.10;99.90
20045;DHT22;10183;47.808;9.476;2022-09-03T17:10:29;21.50;99.90
20045;DHT22;10183;47.808;9.476;2022-09-03T17:21:42;20.10;99.90
20045;DHT22;10183;47.808;9.476;2022-09-03T17:29:41;20.20;99.90
20045;DHT22;10183;47.808;9.476;2022-09-03T17:35:13;19.90;99.90
20045;DHT22;10183;47.808;9.476;2022-09-03T17:49:00;18.60;99.90
20045;DHT22;10183;47.808;9.476;2022-09-03T17:51:49;18.50;99.90
20045;DHT22;10183;47.808;9.476;2022-09-03T18:05:02;17.90;99.90
20045;DHT22;10183;47.808;9.476;2022-09-03T18:10:22;17.80;99.90
20045;DHT22;10183;47.808;9.476;2022-09-03T18:12:53;17.80;99.90
20045;DHT22;10183;47.808;9.476;2022-09-03T18:15:36;17.80;99.90
20045;DHT22;10183;47.808;9.476;2022-09-03T18:18:23;17.80;99.90
20045;DHT22;10183;47.808;9.476;2022-09-03T18:20:54;17.80;99.90
20045;DHT22;10183;47.808;9.476;2022-09-03T18:24:00;17.60;99.90
20045;DHT22;10183;47.808;9.476;2022-09-03T18:27:00;17.30;99.90
20045;DHT22;10183;47.808;9.476;2022-09-03T18:29:53;17.00;99.90
20045;DHT22;10183;47.808;9.476;2022-09-03T18:32:39;16.80;99.90
20045;DHT22;10183;47.808;9.476;2022-09-03T18:35:24;16.90;99.90
20045;DHT22;10183;47.808;9.476;2022-09-03T18:38:14;16.90;99.90
20045;DHT22;10183;47.808;9.476;2022-09-03T18:41:15;17.00;99.90
20045;DHT22;10183;47.808;9.476;2022-09-03T18:53:09;16.90;99.90
20045;DHT22;10183;47.808;9.476;2022-09-03T19:01:46;16.20;99.90
20045;DHT22;10183;47.808;9.476;2022-09-03T19:10:37;15.80;99.90
20045;DHT22;10183;47.808;9.476;2022-09-03T19:13:38;15.80;99.90
20045;DHT22;10183;47.808;9.476;2022-09-03T19:22:35;15.60;99.90
20045;DHT22;10183;47.808;9.476;2022-09-03T19:25:21;15.50;99.90
20045;DHT22;10183;47.808;9.476;2022-09-03T19:41:04;15.30;99.90
20045;DHT22;10183;47.808;9.476;2022-09-03T19:44:06;15.30;99.90
20045;DHT22;10183;47.808;9.476;2022-09-03T19:47:00;15.40;99.90
20045;DHT22;10183;47.808;9.476;2022-09-03T19:53:00;15.40;99.90
20045;DHT22;10183;47.808;9.476;2022-09-03T19:55:54;15.50;99.90
20045;DHT22;10183;47.808;9.476;2022-09-03T19:58:44;15.50;99.90
20045;DHT22;10183;47.808;9.476;2022-09-03T20:01:35;15.50;99.90
20045;DHT22;10183;47.808;9.476;2022-09-03T20:04:37;15.50;99.90
20045;DHT22;10183;47.808;9.476;2022-09-03T20:07:23;15.50;99.90
20045;DHT22;10183;47.808;9.476;2022-09-03T20:10:11;15.60;99.90
20045;DHT22;10183;47.808;9.476;2022-09-03T20:13:04;15.50;99.90
20045;DHT22;10183;47.808;9.476;2022-09-03T20:32:11;14.90;99.90
20045;DHT22;10183;47.808;9.476;2022-09-03T20:35:09;14.90;99.90
20045;DHT22;10183;47.808;9.476;2022-09-03T20:40:36;14.80;99.90
20045;DHT22;10183;47.808;9.476;2022-09-03T20:46:33;14.80;99.90
20045;DHT22;10183;47.808;9.476;2022-09-03T20:50:11;14.90;99.90
20045;DHT22;10183;47.808;9.476;2022-09-03T20:52:21;14.90;99.90
20045;DHT22;10183;47.808;9.476;2022-09-03T20:55:07;15.10;99.90
20045;DHT22;10183;47.808;9.476;2022-09-03T21:00:51;15.10;99.90
20045;DHT22;10183;47.808;9.476;2022-09-03T21:06:36;15.10;99.90
20045;DHT22;10183;47.808;9.476;2022-09-03T21:09:32;15.00;99.90
20045;DHT22;10183;47.808;9.476;2022-09-03T21:14:39;14.90;99.90
20045;DHT22;10183;47.808;9.476;2022-09-03T21:22:54;15.00;99.90
20045;DHT22;10183;47.808;9.476;2022-09-03T21:25:52;15.00;99.90
20045;DHT22;10183;47.808;9.476;2022-09-03T21:28:30;15.00;99.90
20045;DHT22;10183;47.808;9.476;2022-09-03T21:31:01;14.90;99.90
20045;DHT22;10183;47.808;9.476;2022-09-03T21:33:37;14.90;99.90
20045;DHT22;10183;47.808;9.476;2022-09-03T21:36:24;14.80;99.90
20045;DHT22;10183;47.808;9.476;2022-09-03T21:39:02;14.70;99.90
20045;DHT22;10183;47.808;9.476;2022-09-03T21:41:37;14.60;99.90
20045;DHT22;10183;47.808;9.476;2022-09-03T21:44:20;14.60;99.90
20045;DHT22;10183;47.808;9.476;2022-09-03T21:47:15;14.70;99.90
20045;DHT22;10183;47.808;9.476;2022-09-03T21:55:20;14.60;99.90
20045;DHT22;10183;47.808;9.476;2022-09-03T22:00:30;14.20;99.90
20045;DHT22;10183;47.808;9.476;2022-09-03T22:02:58;14.10;99.90
20045;DHT22;10183;47.808;9.476;2022-09-03T22:05:41;14.10;99.90
20045;DHT22;10183;47.808;9.476;2022-09-03T22:08:22;14.10;99.90
20045;DHT22;10183;47.808;9.476;2022-09-03T22:11:30;14.00;99.90
20045;DHT22;10183;47.808;9.476;2022-09-03T22:14:07;13.90;99.90
20045;DHT22;10183;47.808;9.476;2022-09-03T22:16:42;13.80;99.90
20045;DHT22;10183;47.808;9.476;2022-09-03T22:19:10;13.80;99.90
20045;DHT22;10183;47.808;9.476;2022-09-03T22:21:55;13.90;99.90
20045;DHT22;10183;47.808;9.476;2022-09-03T22:30:18;14.10;99.90
20045;DHT22;10183;47.808;9.476;2022-09-03T22:41:17;14.30;99.90
20045;DHT22;10183;47.808;9.476;2022-09-03T22:44:04;14.20;99.90
20045;DHT22;10183;47.808;9.476;2022-09-03T22:46:51;14.20;99.90
20045;DHT22;10183;47.808;9.476;2022-09-03T22:49:27;14.20;99.90
20045;DHT22;10183;47.808;9.476;2022-09-03T22:52:11;14.20;99.90
20045;DHT22;10183;47.808;9.476;2022-09-03T22:58:19;14.20;99.90
20045;DHT22;10183;47.808;9.476;2022-09-03T23:04:13;14.30;99.90
20045;DHT22;10183;47.808;9.476;2022-09-03T23:06:54;14.20;99.90
20045;DHT22;10183;47.808;9.476;2022-09-03T23:09:26;13.90;99.90
20045;DHT22;10183;47.808;9.476;2022-09-03T23:11:58;13.90;99.90
20045;DHT22;10183;47.808;9.476;2022-09-03T23:14:35;13.80;99.90
20045;DHT22;10183;47.808;9.476;2022-09-03T23:17:12;13.80;99.90
20045;DHT22;10183;47.808;9.476;2022-09-03T23:19:42;13.80;99.90
20045;DHT22;10183;47.808;9.476;2022-09-03T23:22:39;13.80;99.90
20045;DHT22;10183;47.808;9.476;2022-09-03T23:25:18;13.80;99.90
20045;DHT22;10183;47.808;9.476;2022-09-03T23:28:10;13.90;99.90
20045;DHT22;10183;47.808;9.476;2022-09-03T23:30:39;13.90;99.90
20045;DHT22;10183;47.808;9.476;2022-09-03T23:33:06;13.70;99.90
20045;DHT22;10183;47.808;9.476;2022-09-03T23:35:41;13.60;99.90
20045;DHT22;10183;47.808;9.476;2022-09-03T23:38:59;13.60;99.90